Southern Ontario METAR Reports

CYSN - St.Catharines
Updated: 03/27/2020 9:00pm
NOT Current
Few Clouds
Few Clouds
 Wind from SE
Wind: SE 7 km/h
Temperature: 4°C
Wind Chill: 2°C
Dew Point: 0°C
Humidity: 75%
Barometer: 1017.3 hPa
Clouds: Few Clouds
Visibility: 24 km
Cloud details: Few Clouds 7620 m
2020/03/28 01:00 CYSN 280100Z 14004KT 15SM FEW250 04/00 A3004 RMK CI1 LAST STFD OBS/NEXT 281100 UTC SLP176
CYHM - Hamilton
Updated: 03/28/2020 5:00am
Overcast
Overcast
 Wind from NE
Wind: NE 26 km/h
Temperature: 2°C
Wind Chill: -3°C
Dew Point: 2°C
Humidity: 100%
Barometer: 1012.9 hPa
Clouds: Overcast
Visibility: 24 km
Cloud details: Few Clouds 122 m
Overcast 3353 m
2020/03/28 09:00 CYHM 280900Z 05014KT 15SM FEW004 OVC110 02/02 A2991 RMK SF2AS6 SLP135
 
CYYZ - Toronto
Updated: 03/28/2020 5:00am
Overcast
Overcast
 Wind from E
Wind: E 24 km/h
Temperature: 4°C
Wind Chill: -1°C
Dew Point: 0°C
Humidity: 75%
Barometer: 1013.9 hPa
Clouds: Overcast
Visibility: 24 km
Cloud details: Overcast 3962 m
2020/03/28 09:00 CYYZ 280900Z 08013KT 15SM OVC130 04/M00 A2994 RMK AS8 SLP144
CYKF - Waterloo
Updated: 03/28/2020 5:00am
Overcast
Overcast
 Wind from E
Wind: E 15 km/h
Temperature: 4°C
Wind Chill: 1°C
Dew Point: 0°C
Humidity: 75%
Barometer: 1012.2 hPa
Clouds: Overcast
Visibility: 14 km
Cloud details: Mostly cloudy 2743 m
Overcast 3658 m
2020/03/28 09:00 CYKF 280900Z AUTO 08008KT 9SM BKN090 OVC120 04/00 A2989 RMK SLP129
 
CYXU - London
Updated: 03/28/2020 5:00am
Light rain, Showers, Overcast
Light rain, Showers, Overcast
 Wind from E
Wind: E 20 km/h
Temperature: 5°C
Wind Chill: 1°C
Dew Point: 2°C
Humidity: 81%
Barometer: 1011.5 hPa
Summary: Light rain, Showers
Clouds: Overcast
Visibility: 24 km
Cloud details: Overcast 2743 m
2020/03/28 09:00 CYXU 280900Z 08011KT 15SM -SHRA OVC090 05/02 A2987 RMK ACC8 SLP120
CYQG - Windsor
Updated: 03/28/2020 5:11am
Light rain, Overcast
Light rain, Overcast
 Wind from E
Wind: E 26 km/h
Temperature: 5°C
Wind Chill: 1°C
Dew Point: 5°C
Humidity: 100%
Barometer: 1008.5 hPa
Summary: Light rain
Clouds: Overcast
Visibility: 14 km
Cloud details: Mostly cloudy 366 m
Mostly cloudy 610 m
Overcast 1829 m
2020/03/28 09:11 CYQG 280911Z AUTO 10014KT 9SM -RA BKN012 BKN020 OVC060 05/05 A2978 RMK LTNG DIST SE PRESFR SLP092
 
CYZR - Sarnia
Updated: 03/28/2020 5:00am
Light rain, Overcast
Light rain, Overcast
 Wind from SE
Wind: SE 6 km/h
Temperature: 5°C
Dew Point: 3°C
Humidity: 87%
Barometer: 1010.8 hPa
Summary: Light rain
Clouds: Overcast
Visibility: 14 km
Cloud details: Overcast 1463 m
2020/03/28 09:00 CYZR 280900Z AUTO 14003KT 9SM -RA OVC048 05/03 A2985 RMK SLP115
CYVV - Wiarton
Updated: 03/28/2020 5:00am
Overcast
Overcast
 Wind from calm
Wind: Calm
Temperature: 1°C
Dew Point: -1°C
Humidity: 87%
Barometer: 1013.5 hPa
Clouds: Overcast
Visibility: 24 km
Cloud details: Overcast 7620 m
2020/03/28 09:00 CYVV 280900Z 00000KT 15SM OVC250 01/M01 A2993 RMK CS8 SLP146
 
CYPQ - Peterborough
Updated: 03/28/2020 5:00am
Overcast
Overcast
 Wind from NE
Wind: NE 4 km/h
Temperature: -1°C
Dew Point: -1°C
Humidity: 100%
Barometer: 1015.9 hPa
Clouds: Overcast
Visibility: 14 km
Cloud details: Mostly cloudy 5486 m
Overcast 6096 m
2020/03/28 09:00 CYPQ 280900Z AUTO 05002KT 9SM BKN180 OVC200 M01/M01 A3000 RMK SLP168
CYTR - Trenton
Updated: 03/28/2020 5:00am
Mist, Mostly cloudy
Mist, Mostly cloudy
 Wind from NE
Wind: NE 9 km/h
Temperature: -2°C
Wind Chill: -6°C
Dew Point: -3°C
Humidity: 93%
Barometer: 1017.3 hPa
Summary: Mist
Clouds: Mostly cloudy
Visibility: 10 km
Cloud details: Mostly cloudy 6096 m
2020/03/28 09:00 CYTR 280900Z 05005KT 6SM BR BKN200 M02/M03 A3004 RMK CI6 FROIN SLP178